logo
Games released by Sekai Project
# Game Release date
Price
Score rank
(Userscore / Metascore)
Owners
Playtime (Median)
1 CLANNAD Nov 23, 2015 $49.9999% (98%/83%)50,000 .. 100,00006:28 (02:09)
2 Muv-Luv Alternative Sep 18, 2017 $39.9992% (95%/83%)0 .. 20,00000:00 (00:00)
3 Muv-Luv Jul 15, 2016 $29.9992% (95%/76%)0 .. 20,00000:00 (00:00)
4 Catch Canvas Oct 14, 2016 $9.9939% (75%)0 .. 20,00000:00 (00:00)
5 Love, Guitars, and the Nashville Skyline Nov 22, 2016 $9.99N/A (N/A)0 .. 20,00000:00 (00:00)
6 Order of Ataxia: Initial Effects Aug 17, 2017 $9.99N/A (N/A)0 .. 20,00000:00 (00:00)
7 WORLD END ECONOMiCA episode.01 May 5, 2014 $12.9967% (87%)100,000 .. 200,00000:01 (00:00)
8 Project LUX Feb 2, 2018 $24.9970% (88%)0 .. 20,00000:00 (00:00)
9 NEKOPARA Vol. 3 May 25, 2017 $9.9997% (97%)200,000 .. 500,00044:54 (00:45)
10 A Light in the Dark Jun 15, 2018 $14.9992% (95%)0 .. 20,00000:00 (00:00)
11 RaidersSphere4th Jun 1, 2015 $19.9952% (81%)20,000 .. 50,00000:00 (00:00)
12 Resette's Prescription ~Book of memory, Swaying scale~ May 30, 2016 $6.49N/A (N/A)0 .. 20,00000:00 (00:00)
13 CyberRebeat -The Fifth Domain of Warfare- Aug 24, 2018 $9.99N/A (N/A)0 .. 20,00000:00 (00:00)
14 Sound of Drop - fall into poison - Oct 30, 2015 $12.9976% (90%)50,000 .. 100,00000:01 (00:00)
15 Saku Saku: Love Blooms with the Cherry Blossoms Oct 2, 2017 $19.9995% (96%)0 .. 20,00000:00 (00:00)
16 The Waters Above: Prelude Jun 27, 2018 FreeN/A (N/A)0 .. 20,00000:00 (00:00)
17 ATOM GRRRL!! Mar 1, 2016 $9.99N/A (N/A)0 .. 20,00000:00 (00:00)
18 NEKOPALIVE May 31, 2016 Free83% (92%)200,000 .. 500,00000:48 (00:48)
19 Ne no Kami - The Two Princess Knights of Kyoto Part 2 Sep 7, 2017 $9.99N/A (N/A)0 .. 20,00000:00 (00:00)
20 Last Stanza Nov 9, 2018 $7.99N/A (N/A)0 .. 20,00000:00 (00:00)
21 fault - milestone two side:above Sep 8, 2015 $14.9999% (98%)100,000 .. 200,00001:30 (01:26)
22 Tropical Liquor Mar 9, 2018 $9.9954% (82%)20,000 .. 50,00000:00 (00:00)
23 WORLD END ECONOMiCA episode.03 Dec 21, 2016 $12.9997% (97%)0 .. 20,00002:48 (03:07)
24 ChronoClock Feb 28, 2017 $29.99N/A (N/A)0 .. 20,00000:00 (00:00)
25 Rabi-Ribi Jan 28, 2016 $17.9997% (97%)100,000 .. 200,00005:25 (05:39)
26 NEKO-NIN exHeart Apr 21, 2017 $9.9997% (97%)20,000 .. 50,00000:00 (00:00)
27 Memory's Dogma CODE:01 Nov 4, 2016 $8.9964% (86%)20,000 .. 50,00000:01 (00:00)
28 NEKO-NIN exHeart +PLUS Saiha Nov 17, 2017 $1.9990% (94%)0 .. 20,00000:00 (00:00)
29 A Clockwork Ley-Line: The Borderline of Dusk Dec 18, 2017 $19.99N/A (N/A)0 .. 20,00000:00 (00:00)
30 The Bell Chimes for Gold Apr 6, 2018 $9.99N/A (N/A)0 .. 20,00000:00 (00:00)
31 Maitetsu Jun 29, 2018 $14.9997% (97%)0 .. 20,00000:00 (00:00)
32 Ne no Kami: The Two Princess Knights of Kyoto Oct 26, 2016 $9.99N/A (N/A)0 .. 20,00000:00 (00:00)
33 VOID Oct 31, 2017 $10.99N/A (N/A)0 .. 20,00000:00 (00:00)
34 Highway Blossoms Jun 17, 2016 $12.9995% (96%)50,000 .. 100,00000:01 (00:00)
35 The Ditzy Demons Are in Love With Me Oct 26, 2018 $24.9997% (97%)0 .. 20,00002:54 (02:51)
36 Tactical Chronicle Apr 18, 2018 $4.99N/A (N/A)0 .. 20,00000:00 (00:00)
37 Written in the Sky Nov 9, 2015 Free45% (78%)100,000 .. 200,00000:03 (00:01)
38 KARAKARA2 Nov 10, 2017 $9.9995% (96%)0 .. 20,00002:03 (01:22)
39 Yohjo Simulator Nov 17, 2015 $4.9911% (53%)0 .. 20,00000:00 (00:00)
40 Shining Song Starnova Sep 13, 2018 $29.9983% (92%)0 .. 20,00000:00 (00:00)
41 Reverse x Reverse Dec 10, 2015 $9.99N/A (N/A)0 .. 20,00000:00 (00:00)
42 Sunrider: Liberation Day - Captain's Edition Mar 4, 2016 $24.9964% (86%)100,000 .. 200,00000:09 (00:05)
43 Just Deserts Jul 25, 2016 $9.9956% (83%)20,000 .. 50,00000:53 (00:17)
44 PacaPlus Mar 30, 2017 $9.99N/A (N/A)0 .. 20,00000:00 (00:00)
45 A Butterfly in the District of Dreams May 12, 2017 $9.99N/A (N/A)0 .. 20,00000:00 (00:00)
46 Narcissu 1st & 2nd May 15, 2007 Free90% (94%)200,000 .. 500,00000:00 (00:00)
47 The Falconers: Moonlight Apr 18, 2017 $9.99N/A (N/A)0 .. 20,00000:00 (00:00)
48 Selenon Rising Apr 29, 2016 $5.99N/A (N/A)0 .. 20,00000:00 (00:00)
49 NEKOPARA Vol. 1 Dec 29, 2014 $9.9995% (96%)500,000 .. 1,000,00029:45 (00:37)
50 Sunrider Academy Apr 15, 2015 $9.9962% (85%)50,000 .. 100,00002:18 (01:09)
51 Root Double -Before Crime * After Days- Xtend Edition Apr 27, 2016 $34.9987% (93%)0 .. 20,00000:01 (00:00)
52 Machina of the Planet Tree -Planet Ruler- Jul 28, 2015 $12.9962% (85%)0 .. 20,00000:00 (00:00)
53 planetarian ~the reverie of a little planet~ Sep 12, 2014 $9.9997% (97%)50,000 .. 100,00000:00 (00:00)
54 Narcissu 10th Anniversary Anthology Project Jan 27, 2016 $2.9997% (97%)50,000 .. 100,00000:41 (00:27)
55 CLANNAD Side Stories Jun 2, 2016 $19.9979% (91%)0 .. 20,00000:00 (00:00)
56 My Little Kitties Jun 21, 2016 $9.9999% (98%)0 .. 20,00000:00 (00:00)
57 AL・FINE Nov 11, 2016 $14.99N/A (N/A)0 .. 20,00000:00 (00:00)
58 WORLD END ECONOMiCA episode.02 Jul 21, 2015 $12.9995% (96%)50,000 .. 100,00000:01 (00:00)
59 Creature Romances: Kokonoe Kokoro Mar 2, 2018 $2.9967% (87%)0 .. 20,00000:00 (00:00)
60 Walkerman May 22, 2017 $6.99N/A (N/A)0 .. 20,00000:00 (00:00)
61 Innocent Forest: The Bird of Light Oct 5, 2018 $4.99N/A (N/A)0 .. 20,00000:00 (00:00)
62 fault - milestone one Dec 15, 2014 $14.9990% (94%)200,000 .. 500,00000:42 (00:46)
63 Eternal Hour: Golden Hour Nov 27, 2017 Free79% (91%)100,000 .. 200,00000:01 (00:00)
64 Trapper Knight, Sharpshooter Princess Apr 10, 2017 $14.99N/A (N/A)0 .. 20,00000:00 (00:00)
65 NEKOPARA Vol. 0 Aug 17, 2015 $2.9990% (94%)500,000 .. 1,000,00020:14 (03:20)
66 Love at First Sight May 18, 2015 $9.9990% (94%)20,000 .. 50,00000:00 (00:00)
67 Mhakna Gramura and Fairy Bell Feb 19, 2018 $4.9999% (98%)0 .. 20,00002:24 (00:48)
68 Fatal Twelve Mar 30, 2018 $19.9997% (97%)0 .. 20,00000:00 (00:00)
69 Cherry Tree High Girls' Fight Jun 13, 2016 $12.99N/A (N/A)0 .. 20,00000:00 (00:00)
70 NEKOPARA Extra Jul 26, 2018 $4.9999% (98%)50,000 .. 100,00002:11 (02:46)
71 G-senjou no Maou - The Devil on G-String Nov 5, 2015 $19.9995% (96%)0 .. 20,00000:00 (00:00)
72 NEKO-NIN exHeart 2 Apr 27, 2018 $9.9990% (94%)0 .. 20,00000:00 (00:00)
73 Tobari and the Night of the Curious Moon May 26, 2015 $9.9952% (81%)0 .. 20,00000:00 (00:00)
74 The Orchard of Stray Sheep Jun 20, 2016 $9.99N/A (N/A)0 .. 20,00000:00 (00:00)
75 A More Beautiful World - A Kinetic Visual Novel Sep 28, 2018 $19.99N/A (N/A)0 .. 20,00000:00 (00:00)
76 WAGAMAMA HIGH SPEC Jul 26, 2017 $39.9990% (94%)0 .. 20,00000:00 (00:00)
77 Rising Angels: Hope Mar 18, 2016 $14.99N/A (N/A)0 .. 20,00000:00 (00:00)
78 MAGICAL×SPIRAL Dec 20, 2016 $14.99N/A (N/A)0 .. 20,00000:00 (00:00)
79 Sunrider: Mask of Arcadius Jul 9, 2014 Free87% (93%)500,000 .. 1,000,00000:01 (00:00)
80 Rising Angels: Reborn Sep 12, 2014 Free49% (80%)100,000 .. 200,00000:00 (00:00)
81 Japanese School Life Nov 22, 2016 $9.9983% (92%)50,000 .. 100,00000:01 (00:00)
82 NEKOPARA Vol. 2 Feb 19, 2016 $9.9997% (97%)200,000 .. 500,00043:12 (30:00)
83 Lucid9: Inciting Incident Apr 14, 2016 Free79% (91%)100,000 .. 200,00000:00 (00:00)
84 Love's Sweet Garnish Sep 7, 2018 $12.9999% (98%)0 .. 20,00000:15 (00:05)
85 A Magical High School Girl / 魔法の女子高生 Nov 22, 2016 $9.9952% (81%)0 .. 20,00000:00 (00:00)
86 Hoshizora no Memoria -Wish upon a Shooting Star- Dec 18, 2017 $19.99N/A (N/A)0 .. 20,00000:00 (00:00)
87 2236 A.D. May 11, 2018 $14.99N/A (N/A)0 .. 20,00000:00 (00:00)
88 KARAKARA Jun 27, 2016 $9.9995% (96%)50,000 .. 100,00000:03 (00:01)
89 Ame no Marginal -Rain Marginal- Jul 7, 2015 $12.9983% (92%)20,000 .. 50,00001:26 (00:28)
90 NEKO-NIN exHeart +PLUS Nachi Nov 2, 2017 $1.9997% (97%)0 .. 20,00000:00 (00:00)
91 Companion Mar 31, 2017 $9.99N/A (N/A)0 .. 20,00000:00 (00:00)
92 Re;Lord 1 ~The witch of Herfort and stuffed animals~ Mar 9, 2018 $9.99N/A (N/A)0 .. 20,00000:00 (00:00)
Overview

Sekai Project

Games by this company: 92
Average userscore: 91.42%
Average metascore: 80.67%
Average playtime: 05:31
Total copies owned: 5,754,000
Average price: $13.64
Help

Owners: Estimated number of people owning this game. The number might be way too small for new releases and sometimes way too big for games that had free weekend event recently. Read more on About page.

Playtime: Average hours played in total per person that have actually launched this game since March 2009. This time is calculated for the whole lifetime, not for the particular year.

Average score: Average users and metacritic score for all games with this score assigned.

Average playtime: Average lifetime playtime for all games where this data is available.

Games by this company: Self-explaining - number of games released by this company on Steam. Both developed and published. Only inculdes games with sales data available.

Total copies owned: Refers to total copies of games developed or published by this company acquired by users for the lifetime. Includes copies sold, downloaded for free and given out.

This number might be too small for recently released games or too big for games that had a free weekend in the last couple of months.

Graphs

Access restricted.

This feature is only available to users with special access rights. Sorry.

If you want to proceed, you need to register or log in first and then back Steam Spy on Patreon. Look for Indie or Pro pledge.

Don't forget to use the same email as on Steam Spy!